Detall de PIREP

Printer-friendly versionPDF version

[2010/11/17 09:50:00]
Flight IATA:CT0001
Pilot Number:042
Company ICAO:CAT
Aircraft Type:AT72/F
PAX:10
Departing Airport: LEMH
Destination Airport: LEVC
Alternate Airport:LEPA
Online: VATSIM
Route:MJV A33 RIKOS
Flight Level:FL210
No Slew and time accel
No pause
Crash detect
Detect pilot in Cockpit between each 30 and 45 minutes
09:50 Zero fuel Weight: 37063 Lbs, Fuel Weight: 11201 Lbs
09:50 VATSIM:LEMH 170930Z 24005KT 210V280 9999 SCT030 16/10 Q1010
09:50 VATSIM:LEVC 170930Z 29013KT 9999 -RA SCT060 12/07 Q1011 NOSIG
09:51 VOICE CATALONIAN
10:12 Parking Brakes off
10:16 Take-off
10:16 Take off Weight: 48201 Lbs
10:16 Wind: 249 @ 005 Knots Heading: 189
10:16 POS N39 51 28 E004 13 03
10:16 Gear Up: 130 Knots
10:16 Flaps:2 at 130 Knots
10:17 Flaps:1 at 128 Knots
10:18 Flaps:0 at 154 Knots
10:27 TOC
10:27 Fuel Weight: 10653 Lb
10:31 Wind:311@035 Knots Heading: 288 Ground Speed: 292 Knots Altitude 20918 ft
10:46 Wind:311@035 Knots Heading: 275 Ground Speed: 298 Knots Altitude 20918 ft
10:49 TOD
10:49 Fuel Weight: 9879 Lb
11:01 Wind:267@019 Knots Heading: 270 Ground Speed: 181 Knots Altitude 5862 ft
11:15 Flaps:1 at 138 Knots
11:16 Wind:253@005 Knots Heading: 312 Ground Speed: 130 Knots Altitude 3044 ft
11:16 Gear Down: 129 Knots
11:16 Flaps:2 at 129 Knots
11:20 TouchDown:Rate -359 ft/min Speed: 99 Knots
11:20 Flaps:1 at 58 Knots
11:20 VATSIM:LEVC 171030Z 26005KT 230V290 9999 -RA FEW035 SCT060 11/09 Q1011 NOSIG
11:20 Land
11:20 Wind:256@005 Knots
11:20 Heading: 293
11:20 Flight Duration: 01:04
11:20 Landing Weight: 46606 Lbs
11:20 POS N39 29 17 W000 28 44
11:21 Parking brakes on
11:21 Block to Block Duration: 01:09
11:21 Final Fuel: 9534 Lbls
11:21 Spent Fuel: 1666 Lbls
11:21 Flight Length: 167 NM
11:21 TOD Land Length: 89 NM

Exportar CSV

Powered by Drupal - Modified by Danger4k